Cranford, NJ (07016)

10:59 PM EDT on March 26, 2017 (GMT -0400)
Hickory Hollow | | Change Station

Elev 79 ft 40.65 °N, 74.30 °W | Updated 32 seconds ago

Overcast
Overcast
39.4 °F
Feels Like 39 °F
N
2.0
Wind Variable Wind from ESE

Today
High -- | Low -- °F
--% Chance of Precip.
Yesterday
High -- | Low -- °F
Precip. -- in
Pressure 30.35 in
Visibility 3.0 miles
Clouds Overcast 900 ft
Windchill 39 °F
Dew Point 38 °F
Humidity 96%
Rainfall 0.04 in
Snow Depth Not available.
6:50 AM 7:15 PM
Waning Crescent, 1% visible
METAR KLDJ 270315Z AUTO 12007KT 3SM BR OVC009 05/03 A3035 RMK AO2 T00450032
Pressure 30.35 in
Visibility 3.0 miles
Clouds Overcast 900 ft
Windchill 39 °F
Dew Point 38 °F
Humidity 96%
Rainfall 0.04 in
Snow Depth Not available.
6:50 AM 7:15 PM
Waning Crescent, 1% visible
METAR KLDJ 270315Z AUTO 12007KT 3SM BR OVC009 05/03 A3035 RMK AO2 T00450032

Get Severe Weather Alerts

Thanks for signing up!

Be on the lookout for a verification email in your inbox.

You'll start receiving the daily forecast at 8 AM.

×

10-Day Weather Forecast

Almanac

Astronomy

Mar. 26, 2017 Rise Set
Actual Time
Civil Twilight
Nautical Twilight
Astronomical Twilight
Moon
Length of Visible Light
Length of Day
Tomorrow will be .
, % of the Moon is Illuminated

Today's Extremes

State Highs State Lows

Community

WunderPhotos

Upload Photos

1,962,540 photos uploaded!

WunderBlog® & News

Nearby

Air Quality

  Air Quality AQ Index Pollutant
Not available.

Snow Depth

Station Depth Elevation

Earthquake Activity

City Distance Mag. Time & Date
Minimum magnitude displayed is 2.5.

Earthquake Activity

City Distance Mag. Time & Date
Minimum magnitude displayed is 2.5.

Coastal Water Temperatures

Place Temperature

Stations

Nearby Weather Stations

Station Location Temp. Windchill Dew Point Humidity Wind Precip. Elev Updated Type
                   

Watches & Warnings

There are currently no watches in effect.